createdAt,value
2018-05-16T00:00:01.740Z,17.20
2018-05-16T00:02:29.172Z,17.20
2018-05-16T00:04:57.003Z,17.10
2018-05-16T00:07:24.440Z,17.10
2018-05-16T00:09:52.651Z,17.10
2018-05-16T00:12:20.086Z,17.00
2018-05-16T00:14:47.912Z,17.00
2018-05-16T00:17:15.348Z,16.90
2018-05-16T00:19:43.172Z,16.80
2018-05-16T00:22:11.380Z,16.80
2018-05-16T00:24:39.957Z,16.60
2018-05-16T00:27:07.388Z,16.50
2018-05-16T00:29:35.970Z,16.40
2018-05-16T00:32:03.495Z,16.40
2018-05-16T00:34:31.733Z,16.30
2018-05-16T00:36:59.592Z,16.30
2018-05-16T00:39:27.420Z,16.20
2018-05-16T00:41:55.628Z,16.00
2018-05-16T00:44:23.476Z,15.80
2018-05-16T00:46:50.923Z,15.80
2018-05-16T00:49:19.206Z,15.70
2018-05-16T00:51:46.708Z,15.60
2018-05-16T00:54:14.491Z,15.50
2018-05-16T00:56:41.913Z,15.30
2018-05-16T00:59:09.382Z,15.20
2018-05-16T01:01:36.852Z,15.10
2018-05-16T01:04:05.059Z,15.10
2018-05-16T01:06:32.513Z,15.10
2018-05-16T01:08:59.932Z,15.10
2018-05-16T01:11:27.785Z,15.10
2018-05-16T01:13:55.968Z,15.30
2018-05-16T01:16:23.416Z,15.20
2018-05-16T01:18:50.872Z,15.20
2018-05-16T01:21:18.313Z,15.30
2018-05-16T01:23:46.515Z,15.30
2018-05-16T01:26:13.957Z,15.20
2018-05-16T01:28:41.416Z,15.20
2018-05-16T01:31:08.849Z,15.10
2018-05-16T01:33:36.285Z,15.00
2018-05-16T01:36:03.743Z,15.00
2018-05-16T01:38:31.953Z,14.90
2018-05-16T01:40:59.397Z,14.90
2018-05-16T01:45:56.401Z,14.80
2018-05-16T01:48:24.242Z,14.80
2018-05-16T01:50:51.680Z,14.80
2018-05-16T01:53:19.109Z,14.70
2018-05-16T01:55:46.967Z,14.60
2018-05-16T01:58:14.788Z,14.40
2018-05-16T02:00:42.245Z,14.40
2018-05-16T02:03:10.446Z,14.20
2018-05-16T02:05:37.882Z,14.10
2018-05-16T02:08:05.385Z,13.80
2018-05-16T02:10:32.819Z,13.80
2018-05-16T02:13:00.274Z,13.70
2018-05-16T02:15:28.485Z,13.60
2018-05-16T02:17:55.941Z,13.50
2018-05-16T02:20:23.381Z,13.50
2018-05-16T02:22:51.590Z,13.50
2018-05-16T02:25:19.055Z,13.50
2018-05-16T02:27:46.494Z,13.50
2018-05-16T02:30:13.956Z,13.40
2018-05-16T02:32:41.402Z,13.50
2018-05-16T02:35:08.849Z,13.30
2018-05-16T02:37:36.296Z,13.20
2018-05-16T02:40:03.765Z,13.20
2018-05-16T02:42:31.206Z,13.10
2018-05-16T02:44:59.422Z,13.10
2018-05-16T02:47:26.963Z,13.10
2018-05-16T02:49:55.081Z,13.10
2018-05-16T02:52:22.510Z,13.10
2018-05-16T02:54:50.370Z,13.00
2018-05-16T02:57:18.205Z,13.10
2018-05-16T02:59:45.658Z,13.10
2018-05-16T03:02:14.633Z,13.10
2018-05-16T03:04:42.074Z,13.00
2018-05-16T03:07:09.915Z,13.10
2018-05-16T03:09:37.369Z,13.20
2018-05-16T03:12:04.834Z,13.30
2018-05-16T03:14:33.060Z,13.30
2018-05-16T03:17:01.631Z,13.20
2018-05-16T03:19:29.454Z,13.20
2018-05-16T03:21:56.909Z,13.20
2018-05-16T03:24:25.389Z,13.10
2018-05-16T03:26:52.845Z,13.10
2018-05-16T03:29:20.283Z,13.10
2018-05-16T03:31:48.508Z,13.20
2018-05-16T03:36:44.752Z,13.30
2018-05-16T03:39:12.207Z,13.30
2018-05-16T03:41:40.421Z,13.30
2018-05-16T03:44:07.863Z,13.30
2018-05-16T03:46:35.326Z,13.20
2018-05-16T03:49:04.272Z,13.20
2018-05-16T03:51:31.721Z,13.10
2018-05-16T03:53:59.168Z,13.20
2018-05-16T03:56:27.375Z,13.20
2018-05-16T03:59:06.635Z,13.30
2018-05-16T04:01:46.770Z,13.20
2018-05-16T04:04:17.125Z,13.30
2018-05-16T04:06:44.548Z,13.20
2018-05-16T04:09:12.760Z,13.30
2018-05-16T04:11:40.988Z,13.30
2018-05-16T04:14:08.825Z,13.20
2018-05-16T04:16:37.038Z,13.20
2018-05-16T04:19:04.504Z,13.30
2018-05-16T04:21:31.958Z,13.40
2018-05-16T04:23:59.405Z,13.50
2018-05-16T04:26:26.861Z,13.50
2018-05-16T04:28:54.724Z,13.50
2018-05-16T04:31:22.150Z,13.60
2018-05-16T04:33:50.369Z,13.60
2018-05-16T04:36:18.953Z,13.50
2018-05-16T04:38:46.800Z,13.50
2018-05-16T04:41:14.274Z,13.50
2018-05-16T04:43:42.506Z,13.50
2018-05-16T04:46:10.342Z,13.40
2018-05-16T04:48:38.576Z,13.50
2018-05-16T04:51:06.785Z,13.60
2018-05-16T04:53:34.608Z,13.60
2018-05-16T04:56:02.069Z,13.60
2018-05-16T04:58:29.514Z,13.70
2018-05-16T05:00:57.054Z,13.70
2018-05-16T05:03:24.440Z,13.70
2018-05-16T05:05:52.270Z,13.70
2018-05-16T05:08:19.728Z,13.70
2018-05-16T05:10:47.185Z,13.70
2018-05-16T05:13:14.631Z,13.80
2018-05-16T05:15:42.463Z,13.70
2018-05-16T05:18:09.924Z,13.70
2018-05-16T05:20:37.360Z,13.70
2018-05-16T05:23:04.805Z,13.80
2018-05-16T05:25:32.261Z,13.80
2018-05-16T05:27:59.710Z,13.80
2018-05-16T05:30:27.920Z,13.90
2018-05-16T05:32:55.373Z,13.90
2018-05-16T05:35:23.214Z,14.00
2018-05-16T05:37:50.658Z,14.00
2018-05-16T05:40:18.203Z,14.20
2018-05-16T05:42:45.638Z,14.30
2018-05-16T05:45:13.488Z,14.20
2018-05-16T05:47:41.955Z,14.30
2018-05-16T05:50:09.399Z,14.40
2018-05-16T05:52:37.249Z,14.30
2018-05-16T05:55:05.466Z,14.50
2018-05-16T05:57:32.908Z,14.50
2018-05-16T06:02:29.186Z,14.60
2018-05-16T06:04:57.406Z,14.70
2018-05-16T06:07:24.865Z,14.70
2018-05-16T06:09:52.322Z,14.80
2018-05-16T06:12:19.782Z,14.90
2018-05-16T06:14:47.989Z,15.00
2018-05-16T06:17:15.450Z,15.10
2018-05-16T06:19:43.705Z,15.20
2018-05-16T06:22:11.110Z,15.30
2018-05-16T06:24:38.569Z,15.40
2018-05-16T06:27:06.086Z,15.30
2018-05-16T06:29:33.849Z,15.30
2018-05-16T06:32:01.336Z,15.50
2018-05-16T06:34:28.781Z,15.50
2018-05-16T06:36:56.238Z,15.40
2018-05-16T06:39:24.457Z,15.60
2018-05-16T06:41:51.945Z,15.70
2018-05-16T06:44:20.532Z,15.80
2018-05-16T06:46:49.126Z,15.80
2018-05-16T06:49:16.572Z,16.00
2018-05-16T06:51:45.225Z,16.00
2018-05-16T06:54:13.429Z,16.10
2018-05-16T06:56:40.878Z,16.30
2018-05-16T06:59:08.325Z,16.40
2018-05-16T07:01:36.557Z,16.50
2018-05-16T07:04:04.795Z,16.60
2018-05-16T07:06:33.108Z,16.60
2018-05-16T07:09:00.575Z,16.90
2018-05-16T07:11:28.025Z,16.80
2018-05-16T07:13:56.231Z,16.80
2018-05-16T07:16:23.701Z,16.80
2018-05-16T07:18:51.138Z,16.90
2018-05-16T07:21:19.348Z,17.00
2018-05-16T07:23:46.805Z,16.90
2018-05-16T07:26:14.245Z,16.80
2018-05-16T07:28:41.694Z,16.90
2018-05-16T07:31:09.158Z,16.90
2018-05-16T07:33:37.385Z,17.10
2018-05-16T07:36:05.596Z,17.40
2018-05-16T07:38:33.089Z,17.60
2018-05-16T07:41:00.555Z,18.00
2018-05-16T07:43:28.760Z,17.90
2018-05-16T07:45:56.217Z,18.10
2018-05-16T07:48:23.746Z,18.40
2018-05-16T07:50:51.193Z,18.60
2018-05-16T07:53:19.417Z,18.40
2018-05-16T07:55:46.857Z,18.50
2018-05-16T07:58:14.307Z,17.90
2018-05-16T08:00:42.528Z,18.50
2018-05-16T08:03:09.978Z,19.10
2018-05-16T08:05:37.397Z,19.20
2018-05-16T08:08:04.849Z,19.30
2018-05-16T08:13:02.223Z,19.40
2018-05-16T08:15:29.687Z,18.90
2018-05-16T08:17:57.135Z,19.30
2018-05-16T08:20:25.350Z,20.20
2018-05-16T08:22:52.797Z,20.20
2018-05-16T08:25:20.246Z,19.70
2018-05-16T08:27:49.225Z,19.40
2018-05-16T08:30:16.676Z,20.20
2018-05-16T08:32:44.138Z,20.10
2018-05-16T08:35:11.587Z,19.90
2018-05-16T08:37:39.042Z,19.60
2018-05-16T08:40:06.491Z,19.60
2018-05-16T08:42:34.702Z,19.70
2018-05-16T08:45:02.219Z,20.10
2018-05-16T08:47:29.985Z,19.40
2018-05-16T08:49:58.189Z,18.90
2018-05-16T08:52:25.636Z,18.70
2018-05-16T08:54:53.844Z,18.90
2018-05-16T08:57:21.264Z,18.80
2018-05-16T08:59:48.719Z,18.70
2018-05-16T09:02:16.181Z,18.70
2018-05-16T09:04:44.028Z,19.20
2018-05-16T09:07:11.853Z,19.40
2018-05-16T09:09:39.298Z,19.70
2018-05-16T09:12:07.535Z,20.40
2018-05-16T09:14:34.988Z,21.30
2018-05-16T09:17:02.456Z,21.30
2018-05-16T09:19:30.297Z,21.60
2018-05-16T09:21:58.505Z,22.00
2018-05-16T09:24:25.984Z,21.40
2018-05-16T09:26:53.422Z,20.10
2018-05-16T09:29:20.871Z,20.10
2018-05-16T09:31:49.083Z,20.60
2018-05-16T09:34:16.536Z,20.80
2018-05-16T09:39:13.716Z,21.50
2018-05-16T09:41:41.495Z,21.20
2018-05-16T09:44:09.945Z,22.00
2018-05-16T09:46:37.456Z,21.40
2018-05-16T09:49:11.256Z,21.10
2018-05-16T09:51:38.738Z,20.10
2018-05-16T09:54:06.942Z,20.40
2018-05-16T09:56:34.378Z,20.30
2018-05-16T09:59:01.854Z,20.10
2018-05-16T10:01:30.057Z,20.70
2018-05-16T10:03:57.911Z,21.00
2018-05-16T10:06:25.353Z,21.20
2018-05-16T10:08:52.831Z,21.20
2018-05-16T10:11:20.286Z,21.00
2018-05-16T10:13:47.725Z,20.90
2018-05-16T10:16:15.190Z,21.40
2018-05-16T10:18:42.624Z,22.00
2018-05-16T10:21:10.886Z,22.50
2018-05-16T10:23:38.383Z,21.90
2018-05-16T10:26:05.765Z,21.40
2018-05-16T10:28:33.233Z,21.20
2018-05-16T10:31:00.698Z,21.10
2018-05-16T10:33:28.922Z,21.20
2018-05-16T10:35:56.374Z,21.50
2018-05-16T10:38:23.819Z,21.70
2018-05-16T10:40:51.655Z,21.30
2018-05-16T10:43:19.095Z,21.00
2018-05-16T10:45:46.535Z,20.30
2018-05-16T10:48:13.975Z,20.40
2018-05-16T10:50:41.433Z,20.40
2018-05-16T10:53:08.906Z,20.40
2018-05-16T10:55:36.366Z,19.50
2018-05-16T10:58:03.839Z,18.50
2018-05-16T11:00:31.330Z,16.20
2018-05-16T11:02:59.558Z,15.80
2018-05-16T11:05:27.046Z,15.90
2018-05-16T11:07:54.590Z,15.60
2018-05-16T11:10:22.043Z,15.60
2018-05-16T11:12:49.503Z,15.70
2018-05-16T11:15:16.976Z,15.80
2018-05-16T11:17:44.428Z,15.90
2018-05-16T11:20:12.750Z,15.90
2018-05-16T11:22:40.968Z,16.00
2018-05-16T11:25:08.837Z,16.00
2018-05-16T11:27:36.290Z,16.00
2018-05-16T11:30:03.759Z,15.80
2018-05-16T11:32:31.625Z,16.10
2018-05-16T11:34:59.090Z,15.80
2018-05-16T11:37:31.112Z,15.80
2018-05-16T11:39:58.695Z,16.00
2018-05-16T11:47:59.565Z,17.70
2018-05-16T11:50:39.612Z,18.50
2018-05-16T11:53:11.832Z,19.40
2018-05-16T11:55:42.108Z,19.90
2018-05-16T11:58:10.505Z,20.90
2018-05-16T12:00:41.865Z,21.00
2018-05-16T12:03:12.036Z,20.40
2018-05-16T12:05:41.711Z,20.50
2018-05-16T12:08:09.289Z,20.10
2018-05-16T12:10:36.793Z,19.90
2018-05-16T12:13:04.267Z,19.80
2018-05-16T12:15:33.242Z,19.80
2018-05-16T12:21:25.234Z,18.20
2018-05-16T12:23:54.169Z,18.20
2018-05-16T12:26:23.813Z,18.40
2018-05-16T12:28:55.781Z,18.50
2018-05-16T12:31:24.154Z,18.60
2018-05-16T12:33:51.610Z,19.00
2018-05-16T12:36:19.077Z,19.20
2018-05-16T12:38:46.722Z,19.10
2018-05-16T12:41:15.879Z,19.10
2018-05-16T12:43:46.622Z,19.20
2018-05-16T12:48:49.871Z,18.60
2018-05-16T12:51:17.330Z,18.40
2018-05-16T12:53:45.546Z,18.30
2018-05-16T12:56:13.007Z,18.40
2018-05-16T12:58:40.861Z,18.30
2018-05-16T13:01:09.115Z,18.40
2018-05-16T13:03:36.639Z,18.50
2018-05-16T13:06:04.111Z,18.50
2018-05-16T13:08:31.673Z,18.80
2018-05-16T13:10:59.147Z,18.80
2018-05-16T13:13:26.686Z,18.70
2018-05-16T13:15:54.913Z,18.90
2018-05-16T13:18:22.378Z,18.90
2018-05-16T13:20:49.971Z,19.00
2018-05-16T13:23:17.431Z,19.10
2018-05-16T13:25:45.318Z,19.20
2018-05-16T13:28:12.766Z,19.60
2018-05-16T13:30:40.210Z,19.60
2018-05-16T13:33:08.442Z,19.30
2018-05-16T13:35:35.960Z,19.00
2018-05-16T13:38:03.787Z,18.90
2018-05-16T13:40:31.242Z,18.90
2018-05-16T13:42:58.709Z,18.90
2018-05-16T13:45:26.201Z,18.90
2018-05-16T13:47:53.663Z,18.60
2018-05-16T13:52:49.905Z,18.50
2018-05-16T13:55:17.362Z,18.30
2018-05-16T13:57:46.308Z,18.30
2018-05-16T14:00:14.583Z,18.40
2018-05-16T14:02:43.112Z,18.20
2018-05-16T14:07:39.380Z,18.30
2018-05-16T14:10:07.241Z,18.20
2018-05-16T14:12:34.703Z,18.30
2018-05-16T14:15:02.161Z,18.50
2018-05-16T14:17:29.634Z,18.50
2018-05-16T14:19:57.151Z,18.40
2018-05-16T14:22:25.704Z,18.30
2018-05-16T14:24:53.138Z,18.20
2018-05-16T14:27:20.624Z,18.10
2018-05-16T14:29:48.318Z,18.10
2018-05-16T14:32:16.164Z,18.20
2018-05-16T14:34:44.037Z,18.10
2018-05-16T14:39:40.308Z,17.90
2018-05-16T14:42:08.153Z,17.90
2018-05-16T14:47:04.474Z,17.80
2018-05-16T14:49:32.742Z,17.50
2018-05-16T14:52:00.604Z,17.50
2018-05-16T14:54:28.079Z,17.40
2018-05-16T14:56:56.710Z,17.50
2018-05-16T14:59:24.167Z,17.20
2018-05-16T15:01:52.398Z,17.40
2018-05-16T15:04:20.236Z,17.40
2018-05-16T15:06:47.695Z,17.50
2018-05-16T15:09:15.136Z,17.50
2018-05-16T15:11:42.607Z,17.60
2018-05-16T15:14:10.058Z,17.50
2018-05-16T15:16:38.273Z,17.80
2018-05-16T15:19:06.131Z,17.70
2018-05-16T15:21:33.578Z,17.80
2018-05-16T15:24:01.804Z,18.20
2018-05-16T15:26:29.263Z,18.50
2018-05-16T15:28:57.469Z,18.80
2018-05-16T15:31:24.923Z,19.10
2018-05-16T15:33:52.406Z,19.30
2018-05-16T15:36:19.937Z,19.70
2018-05-16T15:38:47.362Z,19.60
2018-05-16T15:41:15.206Z,20.90
2018-05-16T15:43:42.647Z,21.70
2018-05-16T15:46:10.098Z,21.60
2018-05-16T15:48:38.322Z,20.70
2018-05-16T15:51:05.775Z,20.90
2018-05-16T15:53:33.238Z,20.90
2018-05-16T15:56:00.711Z,19.70
2018-05-16T15:58:28.482Z,19.90
2018-05-16T16:00:56.570Z,19.90
2018-05-16T16:03:24.422Z,19.90
2018-05-16T16:05:52.634Z,19.60
2018-05-16T16:08:21.233Z,19.60
2018-05-16T16:10:49.810Z,19.30
2018-05-16T16:13:17.294Z,18.90
2018-05-16T16:15:44.738Z,18.80
2018-05-16T16:18:12.193Z,18.60
2018-05-16T16:20:39.649Z,18.30
2018-05-16T16:23:07.084Z,18.20
2018-05-16T16:25:35.154Z,18.10
2018-05-16T16:28:02.607Z,17.90
2018-05-16T16:30:30.460Z,17.70
2018-05-16T16:32:58.681Z,17.30
2018-05-16T16:35:26.537Z,17.20
2018-05-16T16:37:53.984Z,16.90
2018-05-16T16:40:21.422Z,16.70
2018-05-16T16:42:48.882Z,16.40
2018-05-16T16:45:17.090Z,16.10
2018-05-16T16:47:44.548Z,15.80
2018-05-16T16:50:12.102Z,15.50
2018-05-16T16:52:40.951Z,15.30
2018-05-16T16:55:09.174Z,15.00
2018-05-16T17:00:05.503Z,14.60
2018-05-16T17:02:32.990Z,14.40
2018-05-16T17:05:00.475Z,14.50
2018-05-16T17:07:27.937Z,14.60
2018-05-16T17:09:55.394Z,14.70
2018-05-16T17:12:23.485Z,14.60
2018-05-16T17:14:51.381Z,14.60
2018-05-16T17:17:18.870Z,14.50
2018-05-16T17:19:46.592Z,14.40
2018-05-16T17:22:14.118Z,14.40
2018-05-16T17:24:41.591Z,14.40
2018-05-16T17:27:10.193Z,14.40
2018-05-16T17:29:37.668Z,14.40
2018-05-16T17:32:05.195Z,14.40
2018-05-16T17:34:33.468Z,14.30
2018-05-16T17:39:30.502Z,14.20
2018-05-16T17:41:57.966Z,14.10
2018-05-16T17:44:25.460Z,14.00
2018-05-16T17:46:54.076Z,13.90
2018-05-16T17:49:21.551Z,14.10
2018-05-16T17:51:49.010Z,14.10
2018-05-16T17:54:16.482Z,14.10
2018-05-16T17:56:43.949Z,13.90
2018-05-16T17:59:11.418Z,13.90
2018-05-16T18:01:40.039Z,14.00
2018-05-16T18:04:07.517Z,14.10
2018-05-16T18:06:35.068Z,14.20
2018-05-16T18:09:02.867Z,14.20
2018-05-16T18:14:11.800Z,14.40
2018-05-16T18:16:51.146Z,14.40
2018-05-16T18:19:18.603Z,14.30
2018-05-16T18:21:46.049Z,14.30
2018-05-16T18:24:15.374Z,14.40
2018-05-16T18:26:43.606Z,14.30
2018-05-16T18:29:11.466Z,14.30
2018-05-16T18:31:38.937Z,14.10
2018-05-16T18:34:07.204Z,14.20
2018-05-16T18:36:34.670Z,14.10
2018-05-16T18:39:02.526Z,14.00
2018-05-16T18:41:30.753Z,14.00
2018-05-16T18:46:27.810Z,13.90
2018-05-16T18:48:56.080Z,14.10
2018-05-16T18:51:23.529Z,14.10
2018-05-16T18:53:51.399Z,14.10
2018-05-16T18:56:18.851Z,14.20
2018-05-16T18:58:46.331Z,14.20
2018-05-16T19:01:13.794Z,14.30
2018-05-16T19:03:41.256Z,14.40
2018-05-16T19:06:08.750Z,14.30
2018-05-16T19:08:36.226Z,14.30
2018-05-16T19:11:03.679Z,14.30
2018-05-16T19:13:31.130Z,14.40
2018-05-16T19:15:58.582Z,14.40
2018-05-16T19:18:26.204Z,14.30
2018-05-16T19:20:54.458Z,14.30
2018-05-16T19:25:50.709Z,13.90
2018-05-16T19:28:18.184Z,13.80
2018-05-16T19:33:15.338Z,13.80
2018-05-16T19:35:43.572Z,13.90
2018-05-16T19:38:12.254Z,13.80
2018-05-16T19:40:40.565Z,13.70
2018-05-16T19:43:08.709Z,13.70
2018-05-16T19:45:36.950Z,13.70
2018-05-16T19:50:33.255Z,13.70
2018-05-16T19:53:00.713Z,13.70
2018-05-16T19:55:28.227Z,13.70
2018-05-16T19:57:55.706Z,13.70
2018-05-16T20:00:23.156Z,13.80
2018-05-16T20:02:50.599Z,13.70
2018-05-16T20:05:18.057Z,13.70
2018-05-16T20:07:46.283Z,13.70
2018-05-16T20:10:13.782Z,13.70
2018-05-16T20:12:41.226Z,13.70
2018-05-16T20:15:09.454Z,13.70
2018-05-16T20:17:37.699Z,13.70
2018-05-16T20:20:05.168Z,13.70
2018-05-16T20:22:33.026Z,13.70
2018-05-16T20:25:01.623Z,13.60
2018-05-16T20:27:29.081Z,13.60
2018-05-16T20:29:56.526Z,13.60
2018-05-16T20:32:24.040Z,13.60
2018-05-16T20:34:51.531Z,13.60
2018-05-16T20:37:18.974Z,13.60
2018-05-16T20:39:46.425Z,13.60
2018-05-16T20:42:14.306Z,13.60
2018-05-16T20:44:41.767Z,13.70
2018-05-16T20:47:09.217Z,13.70
2018-05-16T20:49:36.674Z,13.70
2018-05-16T20:52:04.165Z,13.70
2018-05-16T20:54:31.836Z,13.70
2018-05-16T20:57:00.087Z,13.70
2018-05-16T20:59:27.529Z,13.80
2018-05-16T21:01:54.986Z,13.70
2018-05-16T21:04:22.444Z,13.70
2018-05-16T21:06:50.702Z,13.80
2018-05-16T21:09:18.149Z,13.80
2018-05-16T21:11:46.444Z,13.80
2018-05-16T21:14:14.670Z,13.80
2018-05-16T21:16:42.126Z,13.80
2018-05-16T21:19:09.591Z,13.80
2018-05-16T21:21:37.038Z,13.80
2018-05-16T21:24:05.254Z,13.70
2018-05-16T21:26:33.544Z,13.70
2018-05-16T21:29:00.994Z,13.70
2018-05-16T21:31:29.506Z,13.60
2018-05-16T21:33:56.975Z,13.70
2018-05-16T21:36:25.546Z,13.70
2018-05-16T21:38:53.437Z,13.70
2018-05-16T21:41:20.908Z,13.70
2018-05-16T21:43:48.376Z,13.70
2018-05-16T21:46:15.853Z,13.60
2018-05-16T21:48:43.305Z,13.60
2018-05-16T21:51:10.758Z,13.60
2018-05-16T21:53:38.253Z,13.60
2018-05-16T21:56:05.711Z,13.60
2018-05-16T21:58:33.159Z,13.60
2018-05-16T22:05:58.270Z,13.50
2018-05-16T22:08:26.119Z,13.50
2018-05-16T22:10:53.588Z,13.50
2018-05-16T22:13:21.466Z,13.40
2018-05-16T22:15:50.091Z,13.40
2018-05-16T22:18:17.561Z,13.40
2018-05-16T22:20:45.039Z,13.40
2018-05-16T22:23:12.887Z,13.40
2018-05-16T22:25:40.358Z,13.40
2018-05-16T22:28:07.869Z,13.30
2018-05-16T22:30:41.193Z,13.40
2018-05-16T22:35:49.662Z,13.30
2018-05-16T22:38:23.239Z,13.30
2018-05-16T22:40:56.377Z,13.20
2018-05-16T22:43:23.869Z,13.20
2018-05-16T22:45:56.313Z,13.10
2018-05-16T22:48:24.227Z,13.00
2018-05-16T22:50:51.677Z,13.10
2018-05-16T22:53:19.141Z,13.00
2018-05-16T22:55:47.385Z,12.90
2018-05-16T22:58:15.748Z,12.90
2018-05-16T23:03:12.054Z,12.80
2018-05-16T23:05:39.962Z,12.80
2018-05-16T23:08:07.811Z,12.70
2018-05-16T23:10:35.270Z,12.70
2018-05-16T23:13:02.779Z,12.70
2018-05-16T23:15:31.743Z,12.70
2018-05-16T23:17:59.235Z,12.60
2018-05-16T23:20:26.690Z,12.60
2018-05-16T23:22:54.165Z,12.60
2018-05-16T23:25:21.604Z,12.60
2018-05-16T23:27:49.055Z,12.50
2018-05-16T23:30:16.519Z,12.50
2018-05-16T23:32:44.750Z,12.50
2018-05-16T23:35:12.243Z,12.40
2018-05-16T23:37:40.470Z,12.40
2018-05-16T23:40:07.931Z,12.40
2018-05-16T23:42:35.409Z,12.40
2018-05-16T23:45:02.874Z,12.30
2018-05-16T23:47:30.346Z,12.30
2018-05-16T23:49:57.821Z,12.20
2018-05-16T23:52:25.310Z,12.20
2018-05-16T23:54:52.820Z,12.20
2018-05-16T23:57:21.054Z,12.20
2018-05-16T23:59:48.560Z,12.20
